CheckWX is a tool to help pilots better visualize weather data.  It is not intended as a substitute for an official pre-flight weather briefing.

06:54:46 UTC

CYQY METAR
Sydney / J.A. Douglas McCurdy Airport
Sydney, Canada
Current

55 mins ago

CYQY 230600Z 29010KT 15SM SKC M11/M14 A3010 RMK SLP200
Observed
Feb-23 @ 06:00 UTC
Wind
  • 290° at 10 KTS
Visibility
15 SM
Flight Rules
VFR
Cloud Levels
  • Clear skies
Temperature
-11°C / 12°F
Dewpoint
-14°C / 7°F
Humidity
79%
Altimeter
30.1" Hg
Pressure
1020 hPa
Previous

2 hours ago

CYQY 230500Z 27007KT 15SM SKC M14/M16 A3010 RMK SLP199
Observed
Feb-23 @ 05:00 UTC
Wind
  • 270° at 7 KTS
Visibility
15 SM
Flight Rules
VFR
Cloud Levels
  • Clear skies
Temperature
-14°C / 7°F
Dewpoint
-16°C / 3°F
Humidity
85%
Altimeter
30.1" Hg
Pressure
1019.9 hPa
Previous

3 hours ago

CYQY 230400Z 24007KT 15SM SKC M14/M16 A3010 RMK SLP199
Observed
Feb-23 @ 04:00 UTC
Wind
  • 240° at 7 KTS
Visibility
15 SM
Flight Rules
VFR
Cloud Levels
  • Clear skies
Temperature
-14°C / 7°F
Dewpoint
-16°C / 3°F
Humidity
85%
Altimeter
30.1" Hg
Pressure
1019.9 hPa